Time;durP1;ratioP1;P1;durP2;ratioP2;P2;SDS_P1;SDS_P2;PMS_P1;PMS_P2;Temp;Humidity;BMP_temperature;BMP_pressure;BME280_temperature;BME280_humidity;BME280_pressure;Samples;Min_cycle;Max_cycle;Signal;HPM_P1;HPM_P2
2020/12/01 00:00:59;;;;;;;68.07;28.83;;;-0.20;99.90;;;;;;5006259;28;20095;-66
2020/12/01 00:03:26;;;;;;;72.67;29.00;;;-0.20;99.90;;;;;;5006589;28;20054;-66
2020/12/01 00:05:52;;;;;;;70.27;27.27;;;-0.20;99.90;;;;;;5006447;28;20415;-67
2020/12/01 00:08:20;;;;;;;72.60;29.80;;;-0.20;99.90;;;;;;5007103;28;20508;-67
2020/12/01 00:10:47;;;;;;;69.60;28.90;;;-0.20;99.90;;;;;;5005649;28;20050;-68
2020/12/01 00:13:13;;;;;;;76.63;30.70;;;-0.30;99.90;;;;;;5006684;28;20056;-67
2020/12/01 00:15:40;;;;;;;76.70;29.57;;;-0.20;99.90;;;;;;5006989;28;20056;-66
2020/12/01 00:18:06;;;;;;;75.07;28.17;;;-0.20;99.90;;;;;;5006027;28;20444;-66
2020/12/01 00:20:33;;;;;;;73.20;29.00;;;-0.20;99.90;;;;;;5006223;28;20494;-67
2020/12/01 00:23:00;;;;;;;69.33;30.23;;;-0.20;99.90;;;;;;5005379;28;20060;-67
2020/12/01 00:25:28;;;;;;;75.87;30.33;;;-0.20;99.90;;;;;;5007216;28;20064;-67
2020/12/01 00:27:54;;;;;;;73.67;29.37;;;-0.20;99.90;;;;;;5005872;28;20054;-67
2020/12/01 00:30:24;;;;;;;74.07;29.37;;;-0.10;99.90;;;;;;5006374;28;20046;-67
2020/12/01 00:32:52;;;;;;;69.97;27.97;;;-0.10;99.90;;;;;;5006523;28;20068;-68
2020/12/01 00:35:22;;;;;;;78.40;28.37;;;-0.10;99.90;;;;;;5004597;28;20042;-67
2020/12/01 00:37:49;;;;;;;69.10;26.63;;;-0.10;99.90;;;;;;5001314;28;20069;-67
2020/12/01 00:40:17;;;;;;;67.97;26.80;;;-0.20;99.90;;;;;;5001568;28;20050;-67
2020/12/01 00:42:45;;;;;;;76.80;29.97;;;-0.30;99.90;;;;;;5004061;28;20054;-67
2020/12/01 00:45:12;;;;;;;75.37;30.83;;;-0.20;99.90;;;;;;5004910;28;20038;-67
2020/12/01 00:47:39;;;;;;;62.30;25.17;;;-0.20;99.90;;;;;;5005615;28;20516;-67
2020/12/01 00:50:10;;;;;;;67.83;27.70;;;-0.10;99.90;;;;;;5006303;28;20543;-67
2020/12/01 00:52:37;;;;;;;72.20;28.87;;;-0.10;99.90;;;;;;5006070;28;20046;-67
2020/12/01 00:55:05;;;;;;;77.33;29.27;;;-0.10;99.90;;;;;;5007380;28;20092;-67
2020/12/01 00:57:31;;;;;;;76.27;30.13;;;-0.10;99.90;;;;;;5008445;28;20054;-67
2020/12/01 00:59:58;;;;;;;74.57;30.97;;;-0.10;99.90;;;;;;5009284;28;20046;-67
2020/12/01 01:02:25;;;;;;;64.67;27.13;;;0.00;99.90;;;;;;5008137;28;20098;-67
2020/12/01 01:04:52;;;;;;;74.13;28.07;;;0.00;99.90;;;;;;5007442;28;20107;-67
2020/12/01 01:07:20;;;;;;;70.30;28.53;;;-0.10;99.90;;;;;;5006756;28;20107;-67
2020/12/01 01:09:47;;;;;;;70.37;28.00;;;-0.10;99.90;;;;;;5004865;28;20075;-67
2020/12/01 01:12:14;;;;;;;63.17;28.07;;;0.00;99.90;;;;;;5004485;28;20096;-67
2020/12/01 01:14:41;;;;;;;68.40;28.27;;;-0.10;99.90;;;;;;5006647;28;20091;-67
2020/12/01 01:17:09;;;;;;;67.33;27.33;;;-0.10;99.90;;;;;;5007016;28;20502;-67
2020/12/01 01:19:36;;;;;;;71.27;28.47;;;-0.10;99.90;;;;;;5009592;28;20559;-67
2020/12/01 01:22:02;;;;;;;69.43;29.00;;;0.00;99.90;;;;;;5007150;28;20042;-67
2020/12/01 01:24:29;;;;;;;69.17;28.03;;;0.00;99.90;;;;;;5009202;28;20050;-68
2020/12/01 01:26:55;;;;;;;69.30;30.50;;;0.00;99.90;;;;;;5007470;28;20054;-68
2020/12/01 01:29:24;;;;;;;71.43;26.57;;;0.00;99.90;;;;;;5009003;28;20498;-68
2020/12/01 01:31:53;;;;;;;69.23;25.30;;;0.10;99.90;;;;;;5008392;28;20050;-68
2020/12/01 01:34:21;;;;;;;66.50;27.70;;;0.10;99.90;;;;;;5006050;28;20459;-68
2020/12/01 01:36:48;;;;;;;64.87;26.53;;;0.10;99.90;;;;;;5009218;28;20410;-68
2020/12/01 01:39:15;;;;;;;72.10;28.47;;;0.10;99.90;;;;;;5007859;28;20045;-68
2020/12/01 01:41:42;;;;;;;68.30;28.53;;;0.00;99.90;;;;;;5008797;28;20053;-69
2020/12/01 01:44:21;;;;;;;59.47;23.67;;;0.10;99.90;;;;;;5008572;28;20415;-68
2020/12/01 01:46:51;;;;;;;67.73;26.03;;;0.10;99.90;;;;;;5005975;28;20464;-68
2020/12/01 01:49:23;;;;;;;74.47;27.70;;;0.00;99.90;;;;;;5008785;28;20450;-68
2020/12/01 01:51:54;;;;;;;64.33;27.47;;;0.00;99.90;;;;;;5009703;28;20050;-68
2020/12/01 01:54:22;;;;;;;71.63;28.37;;;0.10;99.90;;;;;;5009480;28;20057;-68
2020/12/01 01:56:55;;;;;;;68.13;27.33;;;0.10;99.90;;;;;;5008309;28;20053;-68
2020/12/01 01:59:23;;;;;;;66.23;27.67;;;0.00;99.90;;;;;;5008690;28;20405;-68
2020/12/01 02:01:50;;;;;;;71.73;28.57;;;0.10;99.90;;;;;;5006933;28;20078;-68
2020/12/01 02:04:17;;;;;;;71.57;28.27;;;0.10;99.90;;;;;;5008432;28;20054;-68
2020/12/01 02:06:48;;;;;;;62.63;25.70;;;0.00;99.90;;;;;;5007660;28;20469;-68
2020/12/01 02:09:19;;;;;;;65.63;26.13;;;0.00;99.90;;;;;;5007787;28;20054;-68
2020/12/01 02:11:47;;;;;;;66.17;27.03;;;0.10;99.90;;;;;;5005552;28;20046;-68
2020/12/01 02:14:19;;;;;;;65.17;25.97;;;0.10;99.90;;;;;;5007378;28;20046;-68
2020/12/01 02:16:48;;;;;;;64.90;24.53;;;0.10;99.90;;;;;;5006642;28;20046;-68
2020/12/01 02:19:17;;;;;;;63.63;25.97;;;0.10;99.90;;;;;;5008988;28;20061;-68
2020/12/01 02:21:45;;;;;;;66.47;26.27;;;0.10;99.90;;;;;;5007164;28;20050;-68
2020/12/01 02:24:16;;;;;;;68.83;25.83;;;0.00;99.90;;;;;;5009579;28;20573;-68
2020/12/01 02:26:45;;;;;;;67.57;25.97;;;0.00;99.90;;;;;;5007863;28;20126;-68
2020/12/01 02:29:21;;;;;;;69.70;27.77;;;0.00;99.90;;;;;;5008285;28;20046;-68
2020/12/01 02:31:48;;;;;;;68.00;26.57;;;0.00;99.90;;;;;;5005209;28;20053;-65
2020/12/01 02:34:17;;;;;;;69.03;27.20;;;0.00;99.90;;;;;;5008515;28;20642;-66
2020/12/01 02:36:44;;;;;;;74.00;25.83;;;0.10;99.90;;;;;;5004931;28;20050;-67
2020/12/01 02:39:12;;;;;;;68.27;27.13;;;0.10;99.90;;;;;;5008443;28;20049;-66
2020/12/01 02:41:39;;;;;;;64.27;25.13;;;0.10;99.90;;;;;;5007882;28;21598;-66
2020/12/01 02:44:08;;;;;;;64.10;27.17;;;0.10;99.90;;;;;;5007917;28;20050;-66
2020/12/01 02:46:36;;;;;;;66.33;26.90;;;0.10;99.90;;;;;;5008462;28;20080;-66
2020/12/01 02:49:04;;;;;;;71.07;27.43;;;0.10;99.90;;;;;;5007111;28;20158;-66
2020/12/01 02:51:31;;;;;;;67.10;27.37;;;0.10;99.90;;;;;;5007872;28;20050;-66
2020/12/01 02:53:58;;;;;;;59.23;23.60;;;0.20;99.90;;;;;;5007560;28;20050;-66
2020/12/01 02:56:24;;;;;;;70.50;27.27;;;0.20;99.90;;;;;;5008405;28;20060;-66
2020/12/01 02:58:51;;;;;;;70.10;26.77;;;0.10;99.90;;;;;;5008445;28;20091;-66
2020/12/01 03:01:19;;;;;;;71.10;27.90;;;0.20;99.90;;;;;;5006668;28;20050;-66
2020/12/01 03:03:46;;;;;;;66.10;25.93;;;0.20;99.90;;;;;;5008322;28;20053;-67
2020/12/01 03:06:14;;;;;;;73.83;26.33;;;0.30;99.90;;;;;;5006882;28;20057;-67
2020/12/01 03:08:42;;;;;;;66.67;26.00;;;0.30;99.90;;;;;;5008285;28;20050;-67
2020/12/01 03:11:09;;;;;;;69.53;28.17;;;0.30;99.90;;;;;;5007200;28;20065;-67
2020/12/01 03:13:35;;;;;;;73.87;27.73;;;0.30;99.90;;;;;;5008107;28;20046;-67
2020/12/01 03:16:06;;;;;;;74.90;28.20;;;0.30;99.90;;;;;;5008034;28;20057;-69
2020/12/01 03:18:33;;;;;;;71.27;27.93;;;0.30;99.90;;;;;;5006539;28;20460;-67
2020/12/01 03:21:00;;;;;;;67.60;27.63;;;0.30;99.90;;;;;;5006863;28;20042;-67
2020/12/01 03:23:27;;;;;;;71.67;28.10;;;0.30;99.90;;;;;;5007043;28;20054;-67
2020/12/01 03:25:53;;;;;;;73.97;27.97;;;0.30;99.90;;;;;;5008074;28;20064;-67
2020/12/01 03:28:20;;;;;;;68.80;25.87;;;0.20;99.90;;;;;;5007783;28;20046;-67
2020/12/01 03:30:47;;;;;;;74.27;28.90;;;0.30;99.90;;;;;;5006807;28;20064;-67
2020/12/01 03:33:13;;;;;;;72.13;26.80;;;0.30;99.90;;;;;;5007676;28;20050;-68
2020/12/01 03:35:41;;;;;;;67.83;26.43;;;0.30;99.90;;;;;;5006527;28;20072;-68
2020/12/01 03:38:07;;;;;;;66.50;26.53;;;0.30;99.90;;;;;;5006898;28;20456;-68
2020/12/01 03:40:34;;;;;;;64.53;26.10;;;0.30;99.90;;;;;;5005608;28;20045;-68
2020/12/01 03:43:01;;;;;;;69.93;28.47;;;0.30;99.90;;;;;;5007559;28;20061;-68
2020/12/01 03:45:27;;;;;;;70.00;27.43;;;0.40;99.90;;;;;;5007762;28;20144;-68
2020/12/01 03:47:55;;;;;;;69.47;27.50;;;0.40;99.90;;;;;;5004064;28;20502;-68
2020/12/01 03:50:23;;;;;;;74.83;28.23;;;0.30;99.90;;;;;;5004781;28;20416;-68
2020/12/01 03:52:51;;;;;;;73.10;27.23;;;0.30;99.90;;;;;;5011685;28;20046;-68
2020/12/01 03:55:18;;;;;;;68.10;28.67;;;0.30;99.90;;;;;;5008108;28;20046;-68
2020/12/01 03:57:45;;;;;;;77.43;28.60;;;0.40;99.90;;;;;;5006418;28;20050;-68
2020/12/01 04:00:14;;;;;;;75.40;27.53;;;0.40;99.90;;;;;;4987056;28;20054;-68
2020/12/01 04:02:41;;;;;;;73.47;27.00;;;0.40;99.90;;;;;;4987270;28;20061;-68
2020/12/01 04:05:09;;;;;;;75.77;27.47;;;0.40;99.90;;;;;;4993197;28;20053;-68
2020/12/01 04:07:35;;;;;;;80.80;29.80;;;0.40;99.90;;;;;;5007348;28;20050;-68
2020/12/01 04:10:03;;;;;;;68.50;27.47;;;0.40;99.90;;;;;;5006556;28;20050;-68
2020/12/01 04:12:30;;;;;;;75.57;28.57;;;0.40;99.90;;;;;;5006434;28;20053;-68
2020/12/01 04:14:57;;;;;;;77.73;28.70;;;0.50;99.90;;;;;;5006930;28;20054;-68
2020/12/01 04:17:27;;;;;;;79.80;29.53;;;0.50;99.90;;;;;;5006136;28;20072;-68
2020/12/01 04:19:54;;;;;;;71.43;27.23;;;0.50;99.90;;;;;;5007557;28;20053;-68
2020/12/01 04:22:21;;;;;;;69.40;26.50;;;0.50;99.90;;;;;;5004590;28;20053;-68
2020/12/01 04:24:48;;;;;;;73.80;27.70;;;0.40;99.90;;;;;;5007106;28;20061;-68
2020/12/01 04:27:16;;;;;;;73.50;28.57;;;0.50;99.90;;;;;;5006526;28;20050;-68
2020/12/01 04:29:43;;;;;;;72.07;28.67;;;0.50;99.90;;;;;;5007047;28;20050;-68
2020/12/01 04:32:09;;;;;;;74.07;27.47;;;0.60;99.90;;;;;;5005845;28;20049;-68
2020/12/01 04:34:36;;;;;;;64.93;26.03;;;0.60;99.90;;;;;;5005893;28;20058;-68
2020/12/01 04:37:04;;;;;;;75.60;28.63;;;0.60;99.90;;;;;;5007068;28;20058;-68
2020/12/01 04:39:31;;;;;;;70.80;28.67;;;0.70;99.90;;;;;;5006104;28;20061;-68
2020/12/01 04:41:58;;;;;;;71.37;27.00;;;0.60;99.90;;;;;;5005614;28;20528;-68
2020/12/01 04:44:30;;;;;;;75.13;28.70;;;0.70;99.90;;;;;;5006812;28;20058;-67
2020/12/01 04:47:00;;;;;;;68.00;28.53;;;0.70;99.90;;;;;;5005912;28;20133;-68
2020/12/01 04:49:30;;;;;;;67.50;24.87;;;0.70;99.90;;;;;;5009443;28;20421;-68
2020/12/01 04:52:21;;;;;;;68.70;26.23;;;0.60;99.90;;;;;;5008776;28;20057;-68
2020/12/01 04:55:16;;;;;;;73.73;27.17;;;0.60;99.90;;;;;;5010100;28;20054;-68
2020/12/01 04:57:59;;;;;;;73.17;27.70;;;0.60;99.90;;;;;;5009242;28;20050;-67
2020/12/01 05:00:34;;;;;;;74.80;27.33;;;0.50;99.90;;;;;;5009677;28;20157;-68
2020/12/01 05:03:25;;;;;;;70.47;26.73;;;0.60;99.90;;;;;;5009363;28;20437;-68
2020/12/01 05:06:12;;;;;;;70.00;26.60;;;0.60;99.90;;;;;;5010075;28;20049;-68
2020/12/01 05:08:45;;;;;;;70.38;27.02;;;0.60;99.90;;;;;;5009560;28;20137;-68
2020/12/01 05:11:20;;;;;;;68.83;26.63;;;0.60;99.90;;;;;;5009289;28;20062;-68
2020/12/01 05:13:52;;;;;;;62.90;25.23;;;0.60;99.90;;;;;;5010404;28;20061;-68
2020/12/01 05:16:34;;;;;;;64.37;25.47;;;0.60;99.90;;;;;;5009009;28;20050;-68
2020/12/01 05:19:01;;;;;;;68.50;26.50;;;0.70;99.90;;;;;;4990713;28;20093;-68
2020/12/01 05:21:27;;;;;;;70.57;27.13;;;0.60;99.90;;;;;;4989230;28;20046;-68
2020/12/01 05:23:54;;;;;;;68.87;26.97;;;0.60;99.90;;;;;;5000417;28;20049;-68
2020/12/01 05:26:22;;;;;;;64.03;25.73;;;0.60;99.90;;;;;;5010266;28;20049;-68
2020/12/01 05:28:52;;;;;;;71.70;26.37;;;0.70;99.90;;;;;;5008770;28;20422;-68
2020/12/01 05:31:21;;;;;;;71.47;26.83;;;0.60;99.90;;;;;;5011030;28;20056;-69
2020/12/01 05:34:01;;;;;;;70.20;27.23;;;0.60;99.90;;;;;;5009009;28;20050;-69
2020/12/01 05:36:31;;;;;;;75.50;27.23;;;0.60;99.90;;;;;;5009980;28;20056;-69
2020/12/01 05:39:00;;;;;;;72.83;28.43;;;0.60;99.90;;;;;;5009336;28;20085;-69
2020/12/01 05:41:30;;;;;;;76.80;29.27;;;0.60;99.90;;;;;;5009160;28;20054;-69
2020/12/01 05:43:59;;;;;;;77.33;28.37;;;0.60;99.90;;;;;;5009499;28;20126;-69
2020/12/01 05:46:33;;;;;;;78.47;28.77;;;0.60;99.90;;;;;;5008976;28;20417;-69
2020/12/01 05:49:18;;;;;;;73.90;27.03;;;0.70;99.90;;;;;;5009636;28;20045;-68
2020/12/01 05:51:48;;;;;;;72.70;25.87;;;0.70;99.90;;;;;;5008493;28;20500;-69
2020/12/01 05:54:17;;;;;;;78.50;30.00;;;0.70;99.90;;;;;;5009288;28;20050;-69
2020/12/01 05:56:51;;;;;;;78.13;29.17;;;0.70;99.90;;;;;;5011101;28;20516;-69
2020/12/01 05:59:20;;;;;;;78.53;27.87;;;0.70;99.90;;;;;;5006489;28;20046;-69
2020/12/01 06:01:51;;;;;;;75.83;28.93;;;0.70;99.90;;;;;;5009260;28;20593;-69
2020/12/01 06:04:20;;;;;;;80.93;31.13;;;0.70;99.90;;;;;;5009442;28;20046;-69
2020/12/01 06:07:07;;;;;;;74.83;28.87;;;0.70;99.90;;;;;;5011067;28;20056;-69
2020/12/01 06:10:01;;;;;;;77.50;28.77;;;0.70;99.90;;;;;;5009285;28;20054;-69
2020/12/01 06:12:58;;;;;;;80.03;29.93;;;0.70;99.90;;;;;;5009837;28;20056;-69
2020/12/01 06:15:24;;;;;;;68.63;28.40;;;0.70;99.90;;;;;;5007809;28;20046;-69
2020/12/01 06:17:57;;;;;;;74.97;27.67;;;0.80;99.90;;;;;;5009522;28;20061;-69
2020/12/01 06:20:29;;;;;;;76.17;28.77;;;0.80;99.90;;;;;;5009559;28;20465;-69
2020/12/01 06:23:23;;;;;;;78.87;29.60;;;0.70;99.90;;;;;;5009220;28;20050;-68
2020/12/01 06:26:38;;;;;;;82.30;29.03;;;0.70;99.90;;;;;;5009388;28;20061;-69
2020/12/01 06:29:30;;;;;;;79.67;27.43;;;0.70;99.90;;;;;;4982247;28;20050;-68
2020/12/01 06:32:17;;;;;;;76.97;28.03;;;0.70;99.90;;;;;;5001776;28;20049;-68
2020/12/01 06:35:07;;;;;;;77.53;27.07;;;0.60;99.90;;;;;;5009061;28;20057;-68
2020/12/01 06:37:40;;;;;;;76.70;27.07;;;0.60;99.90;;;;;;5007922;28;20498;-69
2020/12/01 06:40:34;;;;;;;76.57;27.73;;;0.50;99.90;;;;;;5008126;28;20448;-68
2020/12/01 06:43:08;;;;;;;77.33;26.87;;;0.50;99.90;;;;;;5010108;28;20133;-68
2020/12/01 06:45:38;;;;;;;74.47;26.57;;;0.60;99.90;;;;;;5006347;28;20437;-68
2020/12/01 06:48:09;;;;;;;82.20;27.47;;;0.50;99.90;;;;;;5007895;28;20418;-68
2020/12/01 06:50:42;;;;;;;78.83;28.10;;;0.50;99.90;;;;;;5005614;28;20052;-68
2020/12/01 06:53:09;;;;;;;85.53;28.97;;;0.60;99.90;;;;;;5007721;28;20053;-68
2020/12/01 06:55:51;;;;;;;86.60;31.27;;;0.60;99.90;;;;;;5007282;28;20058;-69
2020/12/01 06:58:21;;;;;;;81.77;29.63;;;0.60;99.90;;;;;;5006517;28;20065;-68
2020/12/01 07:00:48;;;;;;;86.60;29.57;;;0.60;99.90;;;;;;5000286;28;20049;-69
2020/12/01 07:03:24;;;;;;;79.87;29.77;;;0.60;99.90;;;;;;5007796;28;20054;-69
2020/12/01 07:05:50;;;;;;;85.53;29.33;;;0.70;99.90;;;;;;5008773;28;20693;-69
2020/12/01 07:08:26;;;;;;;85.33;31.53;;;0.70;99.90;;;;;;5007797;28;20072;-69
2020/12/01 07:11:05;;;;;;;79.90;29.60;;;0.80;99.90;;;;;;5007678;28;20054;-69
2020/12/01 07:13:39;;;;;;;79.40;30.40;;;0.90;99.90;;;;;;5007541;28;20289;-69
2020/12/01 07:16:16;;;;;;;76.90;28.77;;;0.70;99.90;;;;;;5008357;28;20054;-69
2020/12/01 07:18:47;;;;;;;80.43;29.67;;;0.80;99.90;;;;;;5008534;28;20099;-68
2020/12/01 07:21:23;;;;;;;79.13;29.77;;;0.80;99.90;;;;;;5007296;28;20107;-68
2020/12/01 07:23:58;;;;;;;73.20;29.40;;;0.80;99.90;;;;;;5007882;28;20054;-68
2020/12/01 07:26:35;;;;;;;71.43;28.50;;;0.80;99.90;;;;;;5007901;28;20460;-68
2020/12/01 07:29:19;;;;;;;71.47;27.43;;;0.90;99.90;;;;;;5007838;28;20058;-68
2020/12/01 07:31:46;;;;;;;80.70;30.27;;;0.90;99.90;;;;;;5006954;28;20050;-68
2020/12/01 07:34:25;;;;;;;78.73;28.60;;;1.00;99.90;;;;;;5008394;28;20065;-68
2020/12/01 07:36:54;;;;;;;74.83;28.47;;;0.90;99.90;;;;;;5007783;28;20421;-68
2020/12/01 07:39:26;;;;;;;78.13;29.50;;;1.00;99.90;;;;;;5008424;28;20057;-67
2020/12/01 07:41:56;;;;;;;77.97;28.83;;;1.00;99.90;;;;;;4988449;28;20069;-68
2020/12/01 07:44:24;;;;;;;83.27;29.90;;;0.90;99.90;;;;;;4988530;28;20069;-68
2020/12/01 07:47:06;;;;;;;71.80;27.97;;;0.90;99.90;;;;;;4989155;28;20058;-68
2020/12/01 07:49:35;;;;;;;77.87;26.53;;;1.00;99.90;;;;;;4988264;28;20046;-68
2020/12/01 07:52:20;;;;;;;77.80;28.97;;;1.00;99.90;;;;;;4991468;28;20098;-68
2020/12/01 07:54:50;;;;;;;81.90;30.30;;;1.00;99.90;;;;;;5008589;28;20063;-68
2020/12/01 07:57:18;;;;;;;70.20;27.87;;;1.00;99.90;;;;;;5007826;28;20050;-68
2020/12/01 07:59:48;;;;;;;72.90;28.93;;;1.00;99.90;;;;;;5007426;28;20391;-68
2020/12/01 08:02:17;;;;;;;73.80;28.23;;;1.00;99.90;;;;;;5007876;28;20054;-68
2020/12/01 08:04:44;;;;;;;79.07;29.23;;;1.00;99.90;;;;;;5008469;28;20057;-68
2020/12/01 08:07:15;;;;;;;80.03;30.37;;;1.10;99.90;;;;;;5008238;28;20056;-68
2020/12/01 08:09:42;;;;;;;76.60;29.40;;;1.10;99.90;;;;;;5008286;28;20056;-68
2020/12/01 08:12:13;;;;;;;75.87;29.17;;;1.10;99.90;;;;;;5007306;28;20115;-68
2020/12/01 08:14:41;;;;;;;71.83;27.57;;;1.10;99.90;;;;;;5008556;28;20045;-68
2020/12/01 08:17:13;;;;;;;78.03;28.17;;;1.10;99.90;;;;;;5007069;28;20053;-68
2020/12/01 08:19:40;;;;;;;73.30;28.33;;;1.10;99.90;;;;;;5007614;28;20061;-68
2020/12/01 08:22:10;;;;;;;80.47;32.40;;;1.20;99.90;;;;;;5007285;28;20053;-68
2020/12/01 08:24:42;;;;;;;73.27;29.77;;;1.20;99.90;;;;;;5007521;28;21644;-67
2020/12/01 08:27:18;;;;;;;67.73;27.57;;;1.20;99.90;;;;;;5008926;28;20058;-68
2020/12/01 08:29:46;;;;;;;74.17;29.90;;;1.30;99.90;;;;;;5009383;28;20061;-67
2020/12/01 08:32:24;;;;;;;72.40;29.27;;;1.40;99.90;;;;;;5008044;28;20494;-68
2020/12/01 08:34:55;;;;;;;73.43;29.07;;;1.40;99.90;;;;;;5007838;28;20061;-68
2020/12/01 08:37:31;;;;;;;70.67;28.77;;;1.40;99.90;;;;;;5007576;28;20421;-68
2020/12/01 08:40:09;;;;;;;70.63;28.98;;;1.40;99.90;;;;;;5007327;28;20054;-68
2020/12/01 08:42:54;;;;;;;75.77;29.83;;;1.40;99.90;;;;;;5007155;28;20053;-67
2020/12/01 08:45:33;;;;;;;71.53;28.57;;;1.40;99.90;;;;;;5007789;28;20068;-67
2020/12/01 08:48:03;;;;;;;69.17;27.00;;;1.50;99.90;;;;;;5007821;28;20103;-67
2020/12/01 08:50:34;;;;;;;69.50;30.40;;;1.50;99.90;;;;;;5007411;28;20042;-67
2020/12/01 08:53:07;;;;;;;67.60;28.77;;;1.70;99.90;;;;;;5007351;28;20520;-66
2020/12/01 08:55:37;;;;;;;75.43;28.47;;;1.60;99.90;;;;;;5008081;28;20433;-67
2020/12/01 08:58:14;;;;;;;68.23;29.13;;;1.60;99.90;;;;;;5007040;28;20050;-67
2020/12/01 09:00:55;;;;;;;76.22;30.25;;;1.70;99.90;;;;;;5007558;28;20053;-67
2020/12/01 09:03:23;;;;;;;73.80;30.07;;;1.80;99.90;;;;;;5001810;28;20056;-68
2020/12/01 09:05:50;;;;;;;69.50;30.13;;;1.80;99.90;;;;;;5005804;28;20138;-67
2020/12/01 09:08:45;;;;;;;70.90;30.13;;;1.80;99.90;;;;;;5005083;28;20877;-72
2020/12/01 09:14:06;;;;;;;74.60;30.80;;;1.90;99.90;;;;;;5003571;28;20125;-69
2020/12/01 09:16:43;;;;;;;76.50;30.60;;;1.90;99.90;;;;;;5005761;28;20084;-70
2020/12/01 09:22:06;;;;;;;72.57;29.87;;;2.00;99.90;;;;;;5003260;28;20050;-70
2020/12/01 09:24:34;;;;;;;68.87;30.03;;;1.90;99.90;;;;;;5005451;28;20070;-70
2020/12/01 09:27:07;;;;;;;68.53;29.30;;;2.00;99.90;;;;;;5005042;28;20042;-72
2020/12/01 09:29:34;;;;;;;74.73;30.10;;;2.10;99.90;;;;;;5005685;28;20129;-72
2020/12/01 09:32:01;;;;;;;68.77;30.43;;;2.10;99.90;;;;;;5004575;28;20057;-77
2020/12/01 09:34:32;;;;;;;68.27;29.40;;;2.20;99.90;;;;;;5006005;28;20418;-77
2020/12/01 09:37:02;;;;;;;71.10;31.53;;;2.20;99.90;;;;;;5009371;28;20072;-73
2020/12/01 09:39:29;;;;;;;73.80;31.60;;;2.30;99.90;;;;;;5007570;28;20091;-71
2020/12/01 09:42:03;;;;;;;70.30;30.10;;;2.30;99.90;;;;;;4997472;28;20046;-70
2020/12/01 09:45:00;;;;;;;78.20;31.30;;;2.30;99.90;;;;;;5005960;28;20062;-71
2020/12/01 09:47:35;;;;;;;75.30;31.47;;;2.30;99.90;;;;;;5004135;28;20072;-71
2020/12/01 09:50:05;;;;;;;68.30;30.43;;;2.30;99.90;;;;;;5007754;28;20103;-71
2020/12/01 09:52:39;;;;;;;70.93;29.40;;;2.30;99.90;;;;;;5008379;28;20038;-71
2020/12/01 09:55:11;;;;;;;74.03;31.70;;;2.30;99.90;;;;;;5010618;28;20062;-75
2020/12/01 09:57:49;;;;;;;74.17;31.80;;;2.10;99.90;;;;;;5008901;28;20046;-76
2020/12/01 10:00:47;;;;;;;75.27;30.37;;;2.10;99.90;;;;;;5009606;28;20057;-77
2020/12/01 10:08:58;;;;;;;69.38;32.10;;;2.20;99.90;;;;;;4951605;28;20058;-75
2020/12/01 10:15:22;;;;;;;70.83;30.97;;;2.30;99.90;;;;;;5004347;28;20115;-69
2020/12/01 10:25:47;;;;;;;66.43;29.40;;;2.70;99.90;;;;;;5004545;28;20074;-69
2020/12/01 10:36:40;;;;;;;69.13;29.27;;;2.50;99.90;;;;;;5005085;28;20057;-69
2020/12/01 10:39:09;;;;;;;67.30;29.83;;;2.60;99.90;;;;;;5006360;28;20054;-70
2020/12/01 10:41:39;;;;;;;73.87;31.97;;;2.60;99.90;;;;;;5006730;28;20056;-69
2020/12/01 10:44:07;;;;;;;75.67;32.60;;;2.50;99.90;;;;;;5005499;28;20046;-69
2020/12/01 10:46:34;;;;;;;77.03;33.13;;;2.60;99.90;;;;;;5007111;28;20058;-69
2020/12/01 10:49:01;;;;;;;65.93;30.33;;;2.50;99.90;;;;;;5006294;28;20046;-68
2020/12/01 10:51:28;;;;;;;71.53;30.93;;;2.60;99.90;;;;;;5006956;28;20498;-68
2020/12/01 10:53:54;;;;;;;66.10;30.40;;;2.60;99.90;;;;;;5006757;28;20046;-69
2020/12/01 10:56:22;;;;;;;71.37;31.57;;;2.70;99.90;;;;;;5007674;28;20413;-71
2020/12/01 10:58:48;;;;;;;72.27;31.27;;;2.70;99.90;;;;;;5007498;28;20087;-72
2020/12/01 11:01:15;;;;;;;69.97;30.80;;;2.60;99.90;;;;;;5003109;28;20046;-71
2020/12/01 11:03:42;;;;;;;73.67;33.63;;;2.60;99.90;;;;;;5007335;28;20057;-70
2020/12/01 11:06:09;;;;;;;70.83;32.50;;;2.60;99.90;;;;;;5006755;28;20046;-70
2020/12/01 11:08:35;;;;;;;73.60;31.00;;;2.50;99.90;;;;;;5007943;28;20060;-70
2020/12/01 11:11:02;;;;;;;71.70;31.67;;;2.60;99.90;;;;;;5007218;28;20065;-70
2020/12/01 11:13:30;;;;;;;74.30;33.10;;;2.60;99.90;;;;;;5005036;28;20490;-70
2020/12/01 11:15:56;;;;;;;62.30;29.50;;;2.70;99.90;;;;;;5007291;28;20053;-70
2020/12/01 11:18:23;;;;;;;66.17;29.80;;;2.70;99.90;;;;;;5007740;28;20052;-70
2020/12/01 11:20:49;;;;;;;72.60;32.27;;;2.70;99.90;;;;;;5007823;28;20054;-70
2020/12/01 11:23:19;;;;;;;74.57;31.87;;;2.70;99.90;;;;;;5007382;28;20057;-70
2020/12/01 11:25:49;;;;;;;71.63;32.00;;;2.80;99.90;;;;;;5007551;28;20376;-70
2020/12/01 11:28:15;;;;;;;71.43;29.90;;;2.80;99.90;;;;;;5006566;28;20102;-70
2020/12/01 11:30:43;;;;;;;65.57;30.83;;;2.90;99.90;;;;;;5007371;28;20053;-70
2020/12/01 11:33:10;;;;;;;68.60;29.77;;;2.90;99.90;;;;;;5008936;28;20046;-70
2020/12/01 11:35:36;;;;;;;67.87;30.03;;;2.80;99.90;;;;;;5008267;28;20050;-70
2020/12/01 11:38:03;;;;;;;75.83;32.87;;;2.80;99.90;;;;;;5005713;28;20062;-70
2020/12/01 11:40:30;;;;;;;66.43;30.73;;;2.90;99.90;;;;;;5002712;28;20054;-70
2020/12/01 11:42:57;;;;;;;65.50;29.63;;;3.00;99.90;;;;;;5004082;28;20050;-70
2020/12/01 11:45:23;;;;;;;67.00;30.13;;;3.00;99.90;;;;;;5002741;28;20057;-70
2020/12/01 11:47:51;;;;;;;62.20;28.90;;;3.10;99.90;;;;;;4995012;28;20064;-70
2020/12/01 11:50:21;;;;;;;68.43;30.63;;;3.20;99.90;;;;;;5002785;28;20054;-70
2020/12/01 11:52:48;;;;;;;61.33;28.37;;;3.30;99.90;;;;;;5003639;28;20053;-70
2020/12/01 11:55:15;;;;;;;62.80;27.30;;;3.30;99.90;;;;;;5008175;28;20418;-70
2020/12/01 11:57:44;;;;;;;67.60;29.17;;;3.30;99.90;;;;;;5006587;28;20434;-70
2020/12/01 12:00:11;;;;;;;64.33;28.80;;;3.20;99.90;;;;;;5000343;28;20069;-70
2020/12/01 12:02:41;;;;;;;61.63;28.97;;;3.30;99.90;;;;;;4997919;28;20056;-70
2020/12/01 12:05:08;;;;;;;62.53;29.27;;;3.40;99.90;;;;;;5007663;28;20054;-70
2020/12/01 12:07:35;;;;;;;59.50;28.63;;;3.50;99.90;;;;;;5004813;28;20120;-70
2020/12/01 12:10:01;;;;;;;58.83;27.97;;;3.40;99.90;;;;;;4992878;28;20052;-70
2020/12/01 12:12:28;;;;;;;61.63;29.37;;;3.50;99.90;;;;;;5007237;28;20089;-70
2020/12/01 12:14:55;;;;;;;64.77;29.73;;;3.50;99.90;;;;;;4994540;28;20514;-70
2020/12/01 12:17:21;;;;;;;64.80;28.73;;;3.50;99.90;;;;;;5004480;28;20057;-70
2020/12/01 12:19:48;;;;;;;64.97;30.00;;;3.40;99.90;;;;;;4996250;28;20045;-70
2020/12/01 12:22:16;;;;;;;62.33;29.07;;;3.30;99.90;;;;;;5006620;28;20053;-70
2020/12/01 12:24:43;;;;;;;60.23;28.63;;;3.20;99.90;;;;;;5005552;28;20046;-70
2020/12/01 12:27:09;;;;;;;68.30;30.20;;;3.10;99.90;;;;;;5006044;28;20050;-70
2020/12/01 12:29:36;;;;;;;65.60;28.57;;;3.10;99.90;;;;;;5006568;28;20054;-70
2020/12/01 12:32:03;;;;;;;65.50;31.37;;;3.00;99.90;;;;;;5004553;28;20050;-70
2020/12/01 12:34:30;;;;;;;61.30;27.73;;;3.00;99.90;;;;;;5006783;28;20065;-71
2020/12/01 12:36:56;;;;;;;67.20;30.80;;;3.10;99.90;;;;;;5006285;28;20046;-70
2020/12/01 12:39:24;;;;;;;64.53;29.97;;;3.20;99.90;;;;;;5005530;28;20418;-70
2020/12/01 12:41:51;;;;;;;67.43;29.20;;;3.00;99.90;;;;;;5005352;28;20495;-70
2020/12/01 12:44:18;;;;;;;66.73;30.53;;;3.00;99.90;;;;;;5005928;28;20046;-70
2020/12/01 12:46:44;;;;;;;66.87;29.30;;;3.00;99.90;;;;;;5015446;28;20073;-70
2020/12/01 12:49:11;;;;;;;66.80;30.20;;;3.10;99.90;;;;;;5012997;28;20107;-70
2020/12/01 12:51:38;;;;;;;68.47;29.47;;;3.00;99.90;;;;;;5014726;28;20050;-70
2020/12/01 12:54:05;;;;;;;59.03;29.00;;;3.10;99.90;;;;;;5015126;28;20077;-70
2020/12/01 12:56:33;;;;;;;63.60;27.87;;;3.10;99.90;;;;;;5012050;28;20049;-70
2020/12/01 12:59:00;;;;;;;66.43;29.97;;;3.10;99.90;;;;;;5015572;28;20041;-70
2020/12/01 13:01:26;;;;;;;62.83;29.30;;;2.90;99.90;;;;;;5012175;28;20050;-70
2020/12/01 13:03:53;;;;;;;64.33;29.43;;;3.10;99.90;;;;;;5005943;28;20099;-70
2020/12/01 13:06:20;;;;;;;66.20;29.00;;;3.00;99.90;;;;;;5005596;28;20418;-70
2020/12/01 13:08:47;;;;;;;65.73;29.60;;;3.00;99.90;;;;;;5007604;28;20065;-70
2020/12/01 13:11:14;;;;;;;59.90;28.53;;;3.00;99.90;;;;;;5009351;28;20140;-70
2020/12/01 13:13:42;;;;;;;67.90;30.00;;;2.90;99.90;;;;;;5006075;28;20095;-70
2020/12/01 13:16:08;;;;;;;68.50;30.17;;;3.00;99.90;;;;;;4997138;28;20087;-71
2020/12/01 13:18:35;;;;;;;67.03;30.13;;;2.90;99.90;;;;;;5001208;28;20050;-70
2020/12/01 13:21:02;;;;;;;64.57;29.77;;;2.90;99.90;;;;;;5002651;28;20049;-70
2020/12/01 13:23:29;;;;;;;62.43;28.87;;;2.90;99.90;;;;;;5009793;28;20084;-70